createdAt,value
2018-12-13T00:03:47.088Z,2.28
2018-12-13T00:08:50.759Z,2.27
2018-12-13T00:13:54.490Z,2.07
2018-12-13T00:18:57.892Z,2.05
2018-12-13T00:24:01.464Z,1.91
2018-12-13T00:29:05.335Z,1.76
2018-12-13T00:34:08.798Z,1.70
2018-12-13T00:39:12.304Z,1.56
2018-12-13T00:44:15.763Z,1.55
2018-12-13T00:49:19.241Z,1.54
2018-12-13T00:54:22.756Z,1.52
2018-12-13T00:59:26.254Z,1.53
2018-12-13T01:04:29.760Z,1.68
2018-12-13T01:09:33.164Z,1.65
2018-12-13T01:14:36.740Z,1.68
2018-12-13T01:19:40.312Z,1.72
2018-12-13T01:24:43.714Z,1.68
2018-12-13T01:29:47.244Z,1.77
2018-12-13T01:34:50.656Z,1.71
2018-12-13T01:39:54.231Z,1.69
2018-12-13T01:44:57.689Z,1.60
2018-12-13T01:50:01.272Z,1.57
2018-12-13T01:55:05.180Z,1.49
2018-12-13T02:00:08.975Z,1.48
2018-12-13T02:05:12.473Z,1.49
2018-12-13T02:10:16.136Z,1.43
2018-12-13T02:15:19.760Z,1.34
2018-12-13T02:20:23.681Z,1.32
2018-12-13T02:25:27.128Z,1.22
2018-12-13T02:30:30.744Z,1.20
2018-12-13T02:35:34.156Z,1.16
2018-12-13T02:40:37.995Z,1.07
2018-12-13T02:45:41.413Z,1.06
2018-12-13T02:50:44.905Z,0.97
2018-12-13T02:55:48.329Z,0.84
2018-12-13T03:00:51.964Z,0.75
2018-12-13T03:05:55.509Z,0.64
2018-12-13T03:10:59.090Z,0.57
2018-12-13T03:16:02.499Z,0.74
2018-12-13T03:21:06.024Z,0.80
2018-12-13T03:26:09.572Z,0.77
2018-12-13T03:31:13.126Z,0.78
2018-12-13T03:36:16.712Z,0.76
2018-12-13T03:41:20.286Z,0.83
2018-12-13T03:46:23.793Z,0.81
2018-12-13T03:51:27.314Z,0.83
2018-12-13T03:56:30.724Z,0.90
2018-12-13T04:01:34.178Z,0.94
2018-12-13T04:06:37.632Z,1.00
2018-12-13T04:11:41.228Z,0.96
2018-12-13T04:16:44.876Z,0.93
2018-12-13T04:21:48.269Z,0.88
2018-12-13T04:26:51.685Z,0.89
2018-12-13T04:31:55.821Z,0.84
2018-12-13T04:36:59.233Z,0.75
2018-12-13T04:42:02.728Z,0.72
2018-12-13T04:47:06.332Z,0.66
2018-12-13T04:52:09.728Z,0.64
2018-12-13T04:57:13.261Z,0.63
2018-12-13T05:02:16.696Z,0.55
2018-12-13T05:07:20.098Z,0.56
2018-12-13T05:12:23.512Z,0.59
2018-12-13T05:17:27.028Z,0.53
2018-12-13T05:22:30.428Z,0.50
2018-12-13T05:27:33.869Z,0.50
2018-12-13T05:32:37.539Z,0.45
2018-12-13T05:37:41.082Z,0.38
2018-12-13T05:42:44.480Z,0.39
2018-12-13T05:47:48.077Z,0.26
2018-12-13T05:52:51.684Z,0.24
2018-12-13T05:57:55.149Z,0.19
2018-12-13T06:02:58.644Z,0.12
2018-12-13T06:08:02.185Z,0.11
2018-12-13T06:13:05.581Z,0.07
2018-12-13T06:18:09.165Z,0.00
2018-12-13T06:23:12.677Z,-0.04
2018-12-13T06:28:16.100Z,-0.04
2018-12-13T06:33:24.766Z,-0.08
2018-12-13T06:38:25.196Z,-0.14
2018-12-13T06:43:28.596Z,-0.18
2018-12-13T06:48:32.184Z,-0.22
2018-12-13T06:53:35.811Z,-0.23
2018-12-13T06:58:39.268Z,-0.30
2018-12-13T07:03:42.796Z,-0.36
2018-12-13T07:08:46.300Z,-0.37
2018-12-13T07:13:49.708Z,-0.37
2018-12-13T07:18:53.755Z,-0.40
2018-12-13T07:23:57.313Z,-0.37
2018-12-13T07:29:00.734Z,-0.43
2018-12-13T07:34:04.412Z,-0.43
2018-12-13T07:39:09.936Z,-0.38
2018-12-13T07:44:13.420Z,-0.39
2018-12-13T07:49:16.868Z,-0.25
2018-12-13T07:54:20.321Z,-0.29
2018-12-13T07:59:23.745Z,-0.24
2018-12-13T08:04:27.172Z,-0.17
2018-12-13T08:09:30.716Z,-0.11
2018-12-13T08:14:34.188Z,-0.07
2018-12-13T08:19:37.600Z,0.01
2018-12-13T08:24:41.148Z,-0.09
2018-12-13T08:29:46.213Z,-0.13
2018-12-13T08:34:49.822Z,-0.16
2018-12-13T08:39:53.439Z,-0.12
2018-12-13T08:44:57.670Z,-0.16
2018-12-13T08:50:01.256Z,-0.10
2018-12-13T08:55:05.248Z,0.03
2018-12-13T09:00:09.056Z,0.07
2018-12-13T09:05:12.625Z,0.19
2018-12-13T09:10:16.236Z,0.23
2018-12-13T09:15:19.926Z,0.31
2018-12-13T09:20:23.472Z,0.58
2018-12-13T09:25:27.036Z,1.17
2018-12-13T09:30:30.604Z,1.20
2018-12-13T09:35:34.147Z,1.35
2018-12-13T09:40:37.677Z,1.46
2018-12-13T09:45:41.178Z,1.54
2018-12-13T09:50:44.653Z,1.37
2018-12-13T09:55:48.176Z,2.00
2018-12-13T10:00:51.632Z,1.99
2018-12-13T10:05:55.050Z,1.76
2018-12-13T10:10:58.533Z,2.00
2018-12-13T10:16:02.023Z,2.05
2018-12-13T10:21:05.674Z,2.20
2018-12-13T10:26:09.148Z,2.01
2018-12-13T10:31:12.636Z,2.38
2018-12-13T10:36:16.321Z,2.35
2018-12-13T10:41:19.874Z,2.82
2018-12-13T10:46:23.438Z,2.90
2018-12-13T10:51:27.168Z,3.07
2018-12-13T10:56:30.604Z,2.97
2018-12-13T11:01:39.420Z,3.22
2018-12-13T11:06:42.948Z,2.99
2018-12-13T11:11:46.549Z,3.25
2018-12-13T11:16:50.080Z,3.14
2018-12-13T11:21:54.109Z,3.27
2018-12-13T11:27:08.388Z,3.51
2018-12-13T11:32:12.148Z,3.92
2018-12-13T11:37:15.711Z,4.03
2018-12-13T11:42:19.387Z,3.82
2018-12-13T11:47:22.921Z,3.76
2018-12-13T11:52:26.532Z,4.13
2018-12-13T11:57:30.145Z,4.30
2018-12-13T12:02:33.845Z,4.48
2018-12-13T12:07:37.476Z,4.49
2018-12-13T12:12:41.089Z,4.16
2018-12-13T12:17:44.856Z,4.09
2018-12-13T12:22:48.360Z,3.67
2018-12-13T12:27:51.809Z,3.72
2018-12-13T12:32:56.128Z,3.52
2018-12-13T12:38:00.090Z,3.28
2018-12-13T12:43:03.688Z,3.05
2018-12-13T12:48:07.114Z,3.24
2018-12-13T12:53:10.629Z,2.82
2018-12-13T12:58:14.249Z,2.92
2018-12-13T13:03:17.765Z,2.51
2018-12-13T13:08:21.268Z,2.30
2018-12-13T13:13:24.934Z,2.54
2018-12-13T13:18:28.533Z,2.84
2018-12-13T13:23:32.170Z,2.81
2018-12-13T13:28:35.640Z,2.79
2018-12-13T13:33:39.160Z,2.87
2018-12-13T13:38:42.965Z,2.69
2018-12-13T13:43:46.540Z,2.56
2018-12-13T13:48:50.039Z,2.58
2018-12-13T13:53:53.524Z,2.49
2018-12-13T13:58:56.943Z,2.12
2018-12-13T14:04:00.481Z,2.09
2018-12-13T14:09:05.273Z,2.01
2018-12-13T14:14:08.759Z,1.82
2018-12-13T14:19:12.314Z,1.76
2018-12-13T14:24:15.735Z,1.77
2018-12-13T14:29:19.151Z,1.80
2018-12-13T14:34:22.624Z,1.67
2018-12-13T14:39:26.087Z,1.66
2018-12-13T14:44:29.688Z,1.57
2018-12-13T14:49:33.263Z,1.60
2018-12-13T14:54:36.733Z,1.50
2018-12-13T14:59:46.868Z,1.40
2018-12-13T15:04:45.796Z,1.44
2018-12-13T15:09:50.987Z,1.42
2018-12-13T15:14:54.788Z,1.37
2018-12-13T15:19:58.358Z,1.29
2018-12-13T15:25:01.924Z,1.27
2018-12-13T15:30:06.704Z,1.27
2018-12-13T15:35:10.359Z,1.20
2018-12-13T15:40:14.047Z,1.06
2018-12-13T15:45:17.875Z,1.03
2018-12-13T15:50:21.317Z,0.93
2018-12-13T15:55:24.794Z,0.85
2018-12-13T16:00:28.447Z,0.85
2018-12-13T16:05:31.972Z,0.84
2018-12-13T16:10:35.433Z,0.83
2018-12-13T16:15:39.026Z,0.79
2018-12-13T16:20:42.561Z,0.75
2018-12-13T16:25:46.011Z,0.74
2018-12-13T16:30:49.459Z,0.70
2018-12-13T16:35:52.957Z,0.61
2018-12-13T16:40:56.418Z,0.56
2018-12-13T16:45:59.980Z,0.46
2018-12-13T16:51:03.545Z,0.43
2018-12-13T16:56:07.667Z,0.29
2018-12-13T17:01:11.189Z,0.32
2018-12-13T17:06:14.668Z,0.31
2018-12-13T17:11:18.089Z,0.28
2018-12-13T17:16:21.730Z,0.28
2018-12-13T17:21:25.252Z,0.29
2018-12-13T17:26:28.800Z,0.37
2018-12-13T17:31:32.255Z,0.34
2018-12-13T17:36:35.745Z,0.34
2018-12-13T17:41:39.508Z,0.35
2018-12-13T17:46:43.161Z,0.34
2018-12-13T17:51:46.999Z,0.41
2018-12-13T17:56:50.653Z,0.35
2018-12-13T18:01:54.331Z,0.37
2018-12-13T18:06:57.773Z,0.42
2018-12-13T18:12:01.205Z,0.41
2018-12-13T18:17:05.288Z,0.51
2018-12-13T18:22:08.933Z,0.44
2018-12-13T18:27:12.724Z,0.48
2018-12-13T18:32:16.222Z,0.52
2018-12-13T18:37:19.636Z,0.46
2018-12-13T18:42:24.128Z,0.46
2018-12-13T18:47:27.752Z,0.57
2018-12-13T18:52:32.444Z,0.44
2018-12-13T18:57:35.880Z,0.47
2018-12-13T19:02:39.356Z,0.53
2018-12-13T19:07:42.957Z,0.48
2018-12-13T19:12:46.509Z,0.46
2018-12-13T19:17:50.025Z,0.48
2018-12-13T19:22:53.741Z,0.48
2018-12-13T19:27:57.469Z,0.52
2018-12-13T19:33:00.885Z,0.55
2018-12-13T19:38:04.393Z,0.47
2018-12-13T19:43:07.988Z,0.46
2018-12-13T19:48:11.388Z,0.43
2018-12-13T19:53:15.144Z,0.45
2018-12-13T19:58:18.756Z,0.43
2018-12-13T20:03:22.165Z,0.46
2018-12-13T20:08:25.679Z,0.35
2018-12-13T20:13:29.304Z,0.46
2018-12-13T20:18:32.844Z,0.44
2018-12-13T20:23:36.406Z,0.48
2018-12-13T20:28:39.989Z,0.44
2018-12-13T20:33:43.964Z,0.45
2018-12-13T20:38:47.614Z,0.40
2018-12-13T20:43:51.351Z,0.40
2018-12-13T20:48:56.488Z,0.39
2018-12-13T20:53:59.971Z,0.41
2018-12-13T20:59:04.642Z,0.41
2018-12-13T21:04:08.287Z,0.46
2018-12-13T21:09:12.114Z,0.46
2018-12-13T21:14:15.859Z,0.45
2018-12-13T21:19:19.396Z,0.42
2018-12-13T21:24:23.020Z,0.46
2018-12-13T21:29:26.650Z,0.38
2018-12-13T21:34:30.188Z,0.37
2018-12-13T21:39:33.864Z,0.40
2018-12-13T21:44:37.716Z,0.37
2018-12-13T21:49:41.200Z,0.37
2018-12-13T21:54:44.701Z,0.33
2018-12-13T21:59:48.312Z,0.35
2018-12-13T22:04:51.901Z,0.32
2018-12-13T22:09:55.343Z,0.31
2018-12-13T22:15:02.557Z,0.29
2018-12-13T22:20:05.296Z,0.35
2018-12-13T22:25:08.958Z,0.32
2018-12-13T22:30:13.352Z,0.28
2018-12-13T22:35:16.868Z,0.27
2018-12-13T22:40:20.413Z,0.27
2018-12-13T22:45:23.892Z,0.23
2018-12-13T22:50:27.295Z,0.21
2018-12-13T22:55:30.708Z,0.21
2018-12-13T23:00:34.462Z,0.20
2018-12-13T23:05:38.068Z,0.23
2018-12-13T23:10:41.574Z,0.28
2018-12-13T23:15:45.080Z,0.20
2018-12-13T23:20:48.472Z,0.18
2018-12-13T23:25:52.000Z,0.21
2018-12-13T23:30:55.512Z,0.23
2018-12-13T23:35:58.928Z,0.19
2018-12-13T23:41:02.403Z,0.24
2018-12-13T23:46:06.221Z,0.21
2018-12-13T23:51:09.664Z,0.18
2018-12-13T23:56:13.320Z,0.26
